Time;durP1;ratioP1;P1;durP2;ratioP2;P2;SDS_P1;SDS_P2;PMS_P1;PMS_P2;Temp;Humidity;BMP_temperature;BMP_pressure;BME280_temperature;BME280_humidity;BME280_pressure;Samples;Min_cycle;Max_cycle;Signal;HPM_P1;HPM_P2
2023/06/22 00:01:54;;;;;;;5.03;2.65;;;;;;;26.87;60.01;99099.88;4935873;29;20441;-73
2023/06/22 00:04:20;;;;;;;5.53;2.58;;;;;;;26.86;60.50;99103.50;4935493;29;20020;-73
2023/06/22 00:06:45;;;;;;;4.72;2.80;;;;;;;26.83;60.61;99111.84;4935519;29;20469;-75
2023/06/22 00:09:10;;;;;;;5.63;2.63;;;;;;;26.81;60.60;99128.03;4935288;29;20027;-74
2023/06/22 00:11:36;;;;;;;5.28;2.30;;;;;;;26.79;60.42;99141.56;4935625;29;20459;-73
2023/06/22 00:14:03;;;;;;;4.38;2.35;;;;;;;26.82;59.98;99140.44;4935436;29;20039;-72
2023/06/22 00:16:28;;;;;;;5.20;2.67;;;;;;;26.79;60.70;99148.75;4935191;29;20040;-73
2023/06/22 00:18:53;;;;;;;5.40;2.35;;;;;;;26.78;60.63;99139.88;4935363;29;20042;-74
2023/06/22 00:21:20;;;;;;;4.97;2.28;;;;;;;26.77;60.67;99132.81;4935541;29;20059;-74
2023/06/22 00:23:46;;;;;;;4.47;2.33;;;;;;;26.77;60.82;99122.13;4935126;29;20405;-74
2023/06/22 00:26:12;;;;;;;5.03;2.13;;;;;;;26.77;60.76;99114.09;4935401;29;20086;-74
2023/06/22 00:28:37;;;;;;;6.40;2.60;;;;;;;26.76;60.72;99125.78;4935189;29;20448;-73
2023/06/22 00:31:02;;;;;;;5.07;2.45;;;;;;;26.76;60.72;99128.47;4935013;29;20020;-73
2023/06/22 00:33:28;;;;;;;4.95;2.70;;;;;;;26.76;60.46;99130.28;4934932;29;20035;-73
2023/06/22 00:35:53;;;;;;;4.55;2.40;;;;;;;26.75;60.74;99150.88;4943163;29;20030;-73
2023/06/22 00:38:20;;;;;;;4.85;2.50;;;;;;;26.75;60.54;99161.56;4933726;29;20031;-72
2023/06/22 00:40:46;;;;;;;3.90;2.38;;;;;;;26.75;60.78;99164.25;4935294;29;20044;-74
2023/06/22 00:43:11;;;;;;;5.07;2.60;;;;;;;26.75;60.46;99163.38;4939496;29;20569;-73
2023/06/22 00:45:37;;;;;;;4.97;2.50;;;;;;;26.77;60.50;99169.44;4934811;29;20059;-72
2023/06/22 00:48:03;;;;;;;5.13;2.60;;;;;;;26.76;60.40;99168.59;4935189;29;20024;-73
2023/06/22 00:50:33;;;;;;;5.53;2.60;;;;;;;26.76;60.51;99173.97;4934944;29;20034;-73
2023/06/22 00:53:00;;;;;;;5.03;2.40;;;;;;;26.76;60.23;99176.63;4934606;29;20046;-73
2023/06/22 00:55:26;;;;;;;5.40;2.40;;;;;;;26.76;60.59;99179.31;4935071;29;20028;-73
2023/06/22 00:57:55;;;;;;;5.53;2.80;;;;;;;26.76;60.57;99176.63;4935016;29;20028;-73
2023/06/22 01:00:24;;;;;;;5.20;2.75;;;;;;;26.76;60.12;99179.31;4933498;29;20032;-73
2023/06/22 01:02:51;;;;;;;5.18;2.63;;;;;;;26.75;60.42;99182.97;4934923;29;20027;-73
2023/06/22 01:05:17;;;;;;;4.80;2.60;;;;;;;26.75;60.59;99174.94;4934907;29;20045;-73
2023/06/22 01:08:04;;;;;;;5.75;3.08;;;;;;;26.77;60.02;99191.72;4934405;29;20024;-74
2023/06/22 01:10:48;;;;;;;4.97;2.92;;;;;;;26.78;60.18;99187.22;4934814;29;20028;-73
2023/06/22 01:13:32;;;;;;;4.75;2.80;;;;;;;26.76;60.09;99195.38;4934836;29;20036;-74
2023/06/22 01:16:13;;;;;;;5.82;3.10;;;;;;;26.76;60.16;99206.06;4939652;29;20038;-73
2023/06/22 01:18:41;;;;;;;4.82;2.97;;;;;;;26.76;60.19;99211.44;4934240;29;20028;-75
2023/06/22 01:21:11;;;;;;;5.03;2.63;;;;;;;26.76;60.50;99203.41;4934493;29;20035;-72
2023/06/22 01:24:10;;;;;;;6.35;2.97;;;;;;;26.75;60.64;99203.53;4934854;29;20028;-74
2023/06/22 01:26:59;;;;;;;5.65;3.22;;;;;;;26.75;60.18;99222.28;4934813;29;20039;-73
2023/06/22 01:29:26;;;;;;;5.15;3.10;;;;;;;26.73;60.58;99232.28;4934399;29;20055;-74
2023/06/22 01:31:54;;;;;;;6.22;2.88;;;;;;;26.72;60.51;99241.28;4934535;29;20582;-76
2023/06/22 01:34:21;;;;;;;4.80;3.17;;;;;;;26.71;60.66;99245.78;4934327;29;20095;-75
2023/06/22 01:36:47;;;;;;;6.47;2.75;;;;;;;26.72;60.75;99252.81;4934415;29;20035;-75
2023/06/22 01:39:13;;;;;;;5.15;2.83;;;;;;;26.71;60.54;99258.31;4934670;29;20027;-74
2023/06/22 01:41:41;;;;;;;5.63;3.08;;;;;;;26.73;60.34;99259.88;4934534;29;20032;-74
2023/06/22 01:44:09;;;;;;;4.45;2.65;;;;;;;26.74;60.38;99255.38;4934521;29;20039;-74
2023/06/22 01:46:35;;;;;;;6.32;3.00;;;;;;;26.75;60.59;99262.41;4934461;29;20028;-74
2023/06/22 01:49:03;;;;;;;4.70;2.85;;;;;;;26.75;60.58;99271.31;4934428;29;20036;-74
2023/06/22 01:51:29;;;;;;;4.97;3.10;;;;;;;26.74;60.50;99261.59;4934404;29;20028;-74
2023/06/22 01:53:55;;;;;;;6.47;2.90;;;;;;;26.75;60.26;99257.06;4934519;29;20042;-74
2023/06/22 01:56:20;;;;;;;4.57;2.60;;;;;;;26.76;59.92;99253.41;4937917;29;20038;-74
2023/06/22 01:59:04;;;;;;;4.75;2.83;;;;;;;26.75;60.31;99247.22;4937991;29;20032;-76
2023/06/22 02:01:54;;;;;;;4.45;2.60;;;;;;;26.74;59.80;99258.91;4937968;29;20401;-72
2023/06/22 02:04:24;;;;;;;4.72;3.13;;;;;;;26.74;59.88;99256.22;4937400;29;20047;-73
2023/06/22 02:06:55;;;;;;;5.13;2.40;;;;;;;26.74;60.17;99274.97;4937884;29;20024;-73
2023/06/22 02:09:22;;;;;;;5.43;2.53;;;;;;;26.73;59.91;99288.47;4937778;29;20413;-74
2023/06/22 02:11:53;;;;;;;4.85;2.50;;;;;;;26.73;60.10;99281.28;4936608;29;20081;-74
2023/06/22 02:14:19;;;;;;;5.45;2.50;;;;;;;26.72;59.98;99284.13;4937691;29;20051;-74
2023/06/22 02:16:45;;;;;;;4.72;2.05;;;;;;;26.72;60.01;99278.75;4937805;29;20063;-75
2023/06/22 02:19:11;;;;;;;4.95;2.35;;;;;;;26.72;59.79;99281.44;4937258;29;20038;-73
2023/06/22 02:21:36;;;;;;;4.53;2.35;;;;;;;26.70;59.64;99272.69;4937568;29;20028;-73
2023/06/22 02:24:02;;;;;;;4.10;2.28;;;;;;;26.68;59.75;99270.13;4937537;29;20421;-73
2023/06/22 02:26:27;;;;;;;4.28;2.40;;;;;;;26.68;59.83;99275.47;4937449;29;20035;-75
2023/06/22 02:28:53;;;;;;;5.20;2.63;;;;;;;26.66;59.54;99285.50;4937311;29;20055;-74
2023/06/22 02:31:19;;;;;;;3.70;1.95;;;;;;;26.65;59.74;99279.31;4937493;29;20552;-72
2023/06/22 02:33:45;;;;;;;4.60;1.92;;;;;;;26.66;59.59;99285.50;4936837;29;20381;-73
2023/06/22 02:36:12;;;;;;;4.57;2.08;;;;;;;26.65;59.43;99294.50;4942036;29;20043;-73
2023/06/22 02:38:48;;;;;;;3.88;1.98;;;;;;;26.66;59.44;99301.53;4937303;29;20032;-74
2023/06/22 02:41:18;;;;;;;3.20;2.00;;;;;;;26.65;59.57;99299.84;4937217;29;20053;-73
2023/06/22 02:43:46;;;;;;;4.78;2.40;;;;;;;26.64;59.56;99303.53;4937213;29;20026;-74
2023/06/22 02:46:13;;;;;;;3.88;1.90;;;;;;;26.64;59.53;99311.53;4937146;29;20059;-74
2023/06/22 02:48:41;;;;;;;3.42;2.17;;;;;;;26.63;59.09;99302.66;4936778;29;20468;-73
2023/06/22 02:51:07;;;;;;;4.60;2.00;;;;;;;26.62;59.14;99300.09;4936814;29;20032;-74
2023/06/22 02:53:32;;;;;;;4.25;2.05;;;;;;;26.62;58.94;99308.13;4936939;29;20039;-74
2023/06/22 02:55:58;;;;;;;5.45;1.80;;;;;;;26.62;59.34;99300.97;4936813;29;20522;-73
2023/06/22 02:58:24;;;;;;;5.55;1.90;;;;;;;26.62;59.23;99282.25;4936672;29;20193;-74
2023/06/22 03:00:52;;;;;;;5.10;2.20;;;;;;;26.62;59.14;99276.03;4936776;29;20030;-73
2023/06/22 03:03:18;;;;;;;3.15;1.55;;;;;;;26.63;58.89;99277.75;4936622;29;20035;-74
2023/06/22 03:05:44;;;;;;;4.13;1.77;;;;;;;26.61;59.13;99285.91;4936509;29;20031;-73
2023/06/22 03:08:09;;;;;;;3.47;1.63;;;;;;;26.60;59.23;99296.72;4936635;29;20079;-73
2023/06/22 03:10:35;;;;;;;3.78;1.75;;;;;;;26.60;59.01;99296.72;4936863;29;20097;-74
2023/06/22 03:13:00;;;;;;;3.88;1.95;;;;;;;26.60;58.96;99292.25;4936465;29;20027;-72
2023/06/22 03:15:26;;;;;;;2.83;1.70;;;;;;;26.59;59.13;99289.69;4936524;29;20540;-74
2023/06/22 03:17:51;;;;;;;2.80;1.60;;;;;;;26.60;58.96;99296.72;4936151;29;20028;-73
2023/06/22 03:20:17;;;;;;;3.67;1.77;;;;;;;26.58;58.84;99293.34;4936372;29;20046;-73
2023/06/22 03:22:43;;;;;;;4.70;1.83;;;;;;;26.60;59.04;99296.72;4936429;29;20115;-75
2023/06/22 03:25:15;;;;;;;3.03;1.50;;;;;;;26.58;58.58;99302.22;4936462;29;20103;-73
2023/06/22 03:27:41;;;;;;;6.68;2.17;;;;;;;26.57;58.81;99308.56;4936456;29;20024;-74
2023/06/22 03:30:09;;;;;;;4.32;2.13;;;;;;;26.58;58.93;99320.94;4938663;29;20107;-74
2023/06/22 03:32:35;;;;;;;4.78;1.90;;;;;;;26.57;58.80;99318.41;4937387;29;20036;-74
2023/06/22 03:35:00;;;;;;;3.38;2.15;;;;;;;26.57;58.58;99324.59;4936151;29;20041;-73
2023/06/22 03:37:26;;;;;;;3.72;1.90;;;;;;;26.56;58.96;99322.91;4936227;29;20031;-73
2023/06/22 03:39:52;;;;;;;4.40;1.95;;;;;;;26.57;58.77;99329.13;4936056;29;20111;-73
2023/06/22 03:42:17;;;;;;;5.30;1.98;;;;;;;26.55;58.82;99331.94;4935947;29;20797;-73
2023/06/22 03:44:43;;;;;;;4.78;2.03;;;;;;;26.56;58.50;99325.59;4935639;29;20020;-73
2023/06/22 03:47:09;;;;;;;4.78;2.05;;;;;;;26.57;58.59;99324.59;4935543;29;20031;-73
2023/06/22 03:49:35;;;;;;;3.97;2.08;;;;;;;26.56;58.67;99322.06;4935797;29;20032;-73
2023/06/22 03:52:04;;;;;;;3.67;1.70;;;;;;;26.53;58.34;99324.03;4935915;29;20034;-74
2023/06/22 03:54:30;;;;;;;6.50;1.85;;;;;;;26.56;58.29;99322.06;4935528;29;20040;-73
2023/06/22 03:56:58;;;;;;;3.92;2.13;;;;;;;26.54;58.26;99315.00;4935870;29;20030;-73
2023/06/22 03:59:24;;;;;;;4.30;1.77;;;;;;;26.53;58.24;99310.66;4935746;29;20043;-74
2023/06/22 04:01:50;;;;;;;3.90;2.13;;;;;;;26.51;58.66;99303.72;4935455;29;20023;-72
2023/06/22 04:04:16;;;;;;;5.68;2.55;;;;;;;26.51;58.64;99303.72;4935734;29;20022;-73
2023/06/22 04:06:41;;;;;;;4.28;1.63;;;;;;;26.50;58.59;99297.56;4935553;29;20108;-74
2023/06/22 04:09:07;;;;;;;3.33;1.73;;;;;;;26.50;58.68;99300.22;4935641;29;20437;-75
2023/06/22 04:11:32;;;;;;;4.20;1.95;;;;;;;26.50;58.68;99291.34;4935354;29;20023;-73
2023/06/22 04:13:57;;;;;;;5.78;2.10;;;;;;;26.48;58.63;99288.78;4935651;29;20031;-73
2023/06/22 04:16:23;;;;;;;5.38;2.28;;;;;;;26.49;58.63;99301.19;4934761;29;20059;-73
2023/06/22 04:18:48;;;;;;;3.78;1.60;;;;;;;26.47;58.72;99308.50;4935110;29;20511;-74
2023/06/22 04:21:13;;;;;;;4.63;1.80;;;;;;;26.47;58.64;99303.16;4938578;29;20082;-74
2023/06/22 04:23:39;;;;;;;3.92;2.00;;;;;;;26.47;58.82;99303.16;4936217;29;20492;-73
2023/06/22 04:26:04;;;;;;;4.32;2.33;;;;;;;26.47;58.46;99308.50;4934905;29;20036;-73
2023/06/22 04:28:34;;;;;;;3.85;2.00;;;;;;;26.45;58.66;99305.13;4927046;29;20381;-75
2023/06/22 04:31:02;;;;;;;5.10;2.17;;;;;;;26.45;58.99;99305.13;4934810;29;20047;-73
2023/06/22 04:33:29;;;;;;;6.10;2.15;;;;;;;26.47;58.80;99305.84;4934876;29;20034;-74
2023/06/22 04:35:56;;;;;;;4.93;2.35;;;;;;;26.49;58.74;99321.75;4935182;29;20400;-74
2023/06/22 04:38:22;;;;;;;4.18;2.10;;;;;;;26.48;58.77;99320.06;4935122;29;20449;-73
2023/06/22 04:40:48;;;;;;;4.65;2.83;;;;;;;26.47;58.47;99329.91;4935108;29;20103;-72
2023/06/22 04:43:13;;;;;;;4.38;2.42;;;;;;;26.44;58.53;99346.22;4935148;29;20608;-73
2023/06/22 04:45:38;;;;;;;4.53;2.42;;;;;;;26.47;58.79;99356.66;4934013;29;20408;-74
2023/06/22 04:48:05;;;;;;;4.18;2.40;;;;;;;26.45;58.69;99361.31;4935163;29;20110;-74
2023/06/22 04:50:30;;;;;;;5.63;2.63;;;;;;;26.45;58.58;99372.00;4935007;29;20043;-73
2023/06/22 04:52:55;;;;;;;4.65;2.38;;;;;;;26.44;58.71;99372.97;4934883;29;20020;-75
2023/06/22 04:55:21;;;;;;;5.15;3.00;;;;;;;26.45;58.52;99374.69;4934816;29;20027;-73
2023/06/22 04:57:50;;;;;;;3.88;2.33;;;;;;;26.47;58.32;99378.06;4934979;29;20019;-75
2023/06/22 05:00:19;;;;;;;4.68;2.80;;;;;;;26.45;58.80;99385.38;4934573;29;20027;-73
2023/06/22 05:02:46;;;;;;;5.45;2.80;;;;;;;26.44;58.83;99383.66;4934941;29;20105;-73
2023/06/22 05:05:15;;;;;;;5.57;2.70;;;;;;;26.44;58.80;99383.66;4932803;29;20032;-73
2023/06/22 05:07:47;;;;;;;5.15;2.85;;;;;;;26.44;58.76;99382.84;4934929;29;20039;-73
2023/06/22 05:10:13;;;;;;;4.72;2.97;;;;;;;26.43;58.44;99376.63;4935007;29;20038;-73
2023/06/22 05:12:40;;;;;;;6.30;2.90;;;;;;;26.41;58.76;99362.56;4934851;29;20028;-72
2023/06/22 05:15:07;;;;;;;5.18;2.78;;;;;;;26.42;58.58;99369.59;4934142;29;20492;-73
2023/06/22 05:17:32;;;;;;;5.68;2.83;;;;;;;26.44;58.28;99364.94;4934799;29;20039;-73
2023/06/22 05:19:58;;;;;;;5.55;3.00;;;;;;;26.43;58.70;99363.25;4934855;29;20028;-72
2023/06/22 05:22:23;;;;;;;7.50;3.55;;;;;;;26.41;58.41;99362.56;4941791;29;20028;-72
2023/06/22 05:24:48;;;;;;;5.40;3.03;;;;;;;26.40;58.59;99361.69;4933951;29;20028;-72
2023/06/22 05:27:14;;;;;;;4.72;2.83;;;;;;;26.39;58.68;99368.03;4934676;29;20036;-72
2023/06/22 05:29:40;;;;;;;6.50;2.60;;;;;;;26.38;58.45;99369.00;4937200;29;20054;-73
2023/06/22 05:32:06;;;;;;;4.43;3.00;;;;;;;26.42;58.76;99379.47;4937896;29;20444;-73
2023/06/22 05:34:32;;;;;;;5.50;3.35;;;;;;;26.40;58.42;99383.09;4938133;29;20028;-73
2023/06/22 05:36:58;;;;;;;5.38;2.70;;;;;;;26.37;58.63;99382.50;4937476;29;20054;-74
2023/06/22 05:39:24;;;;;;;8.45;3.50;;;;;;;26.38;58.88;99384.19;4938145;29;20039;-73
2023/06/22 05:41:50;;;;;;;7.30;3.53;;;;;;;26.41;59.09;99389.28;4936336;29;20039;-74
2023/06/22 05:44:15;;;;;;;9.85;4.00;;;;;;;26.39;59.31;99396.63;4938028;29;20047;-73
2023/06/22 05:46:49;;;;;;;6.25;3.80;;;;;;;26.39;59.06;99397.44;4938008;29;20024;-74
2023/06/22 05:49:16;;;;;;;8.48;3.50;;;;;;;26.38;59.03;99401.09;4938018;29;20118;-73
2023/06/22 05:51:41;;;;;;;10.27;4.07;;;;;;;26.35;59.31;99412.06;4937807;29;20051;-73
2023/06/22 05:54:08;;;;;;;7.55;3.83;;;;;;;26.38;59.27;99416.28;4937619;29;20456;-73
2023/06/22 05:56:34;;;;;;;7.80;4.28;;;;;;;26.36;59.90;99419.13;4937781;29;20031;-71
2023/06/22 05:58:59;;;;;;;31.10;20.08;;;;;;;26.39;59.88;99418.84;4938851;29;20544;-72
2023/06/22 06:01:25;;;;;;;38.45;24.65;;;;;;;26.40;59.84;99414.34;4945550;29;20499;-75
2023/06/22 06:03:52;;;;;;;69.78;44.58;;;;;;;26.38;59.79;99422.50;4938508;29;20035;-73
2023/06/22 06:06:18;;;;;;;104.75;70.07;;;;;;;26.36;59.66;99427.16;4937955;29;20059;-73
2023/06/22 06:08:43;;;;;;;130.75;89.75;;;;;;;26.33;59.88;99418.53;4937799;29;20063;-73
2023/06/22 06:11:09;;;;;;;149.77;99.18;;;;;;;26.35;59.44;99425.44;4937265;29;20158;-73
2023/06/22 06:13:34;;;;;;;157.90;110.95;;;;;;;26.34;59.83;99436.28;4936278;29;20032;-72
2023/06/22 06:16:00;;;;;;;177.07;122.20;;;;;;;26.33;59.87;99438.09;4937680;29;20401;-73
2023/06/22 06:18:25;;;;;;;194.52;130.48;;;;;;;26.35;59.37;99443.31;4937506;29;20060;-72
2023/06/22 06:20:51;;;;;;;200.60;140.55;;;;;;;26.32;59.43;99436.41;4937467;29;20107;-74
2023/06/22 06:23:16;;;;;;;214.10;153.02;;;;;;;26.32;59.54;99451.59;4937589;29;20031;-74
2023/06/22 06:25:42;;;;;;;216.52;148.05;;;;;;;26.36;59.34;99450.38;4938502;29;20163;-72
2023/06/22 06:28:07;;;;;;;199.95;141.48;;;;;;;26.33;59.68;99439.94;4938890;29;20459;-72
2023/06/22 06:30:32;;;;;;;206.07;145.95;;;;;;;26.36;59.30;99445.00;4936252;29;20036;-75
2023/06/22 06:32:58;;;;;;;199.63;140.90;;;;;;;26.39;59.22;99450.94;4944364;29;20039;-74
2023/06/22 06:35:23;;;;;;;192.18;136.38;;;;;;;26.37;59.46;99447.56;4945802;29;20031;-75
2023/06/22 06:37:50;;;;;;;188.27;134.18;;;;;;;26.37;59.32;99450.25;4937295;29;20052;-75
2023/06/22 06:40:17;;;;;;;175.18;120.78;;;;;;;26.36;59.61;99450.38;4932493;29;20516;-73
2023/06/22 06:42:45;;;;;;;162.90;114.07;;;;;;;26.37;59.34;99452.91;4937875;29;20562;-74
2023/06/22 06:45:16;;;;;;;139.80;94.82;;;;;;;26.37;59.25;99462.75;4931197;29;20027;-73
2023/06/22 06:47:42;;;;;;;131.88;93.68;;;;;;;26.37;59.23;99474.31;4929891;29;20034;-74
2023/06/22 06:50:09;;;;;;;115.57;80.80;;;;;;;26.36;59.21;99466.41;4936406;29;20040;-72
2023/06/22 06:52:35;;;;;;;109.07;74.28;;;;;;;26.36;59.50;99477.13;4936400;29;20160;-73
2023/06/22 06:55:01;;;;;;;98.93;68.30;;;;;;;26.35;59.49;99467.41;4935823;29;20031;-72
2023/06/22 06:57:28;;;;;;;87.68;59.42;;;;;;;26.38;59.14;99475.16;4936291;29;20024;-73
2023/06/22 06:59:57;;;;;;;88.10;59.55;;;;;;;26.38;59.45;99469.78;4937213;29;20032;-75
2023/06/22 07:02:23;;;;;;;76.60;51.08;;;;;;;26.35;59.35;99475.41;4936678;29;20031;-76
2023/06/22 07:04:49;;;;;;;71.63;50.53;;;;;;;26.37;59.15;99468.97;4936969;29;20020;-75
2023/06/22 07:07:15;;;;;;;66.93;45.38;;;;;;;26.39;59.29;99471.53;4936824;29;20548;-75
2023/06/22 07:09:41;;;;;;;57.97;41.45;;;;;;;26.36;59.19;99474.44;4936386;29;20079;-75
2023/06/22 07:12:07;;;;;;;54.72;39.22;;;;;;;26.38;58.87;99476.00;4936523;29;20023;-75
2023/06/22 07:14:32;;;;;;;50.13;34.80;;;;;;;26.40;59.09;99478.56;4936721;29;20039;-76
2023/06/22 07:16:58;;;;;;;48.50;34.75;;;;;;;26.37;58.96;99473.44;4936437;29;20452;-75
2023/06/22 07:19:27;;;;;;;48.05;32.88;;;;;;;26.38;58.84;99484.03;4936633;29;20039;-75
2023/06/22 07:21:53;;;;;;;42.38;30.42;;;;;;;26.36;59.16;99490.50;4936545;29;20020;-76
2023/06/22 07:24:20;;;;;;;41.85;28.13;;;;;;;26.34;59.11;99495.13;4936134;29;20032;-75
2023/06/22 07:26:50;;;;;;;40.55;27.20;;;;;;;26.35;59.07;99500.31;4935979;29;20393;-76
2023/06/22 07:29:20;;;;;;;32.60;24.45;;;;;;;26.35;59.22;99497.66;4939213;29;20503;-77
2023/06/22 07:31:46;;;;;;;35.22;23.10;;;;;;;26.36;59.13;99503.88;4935772;29;20055;-76
2023/06/22 07:34:12;;;;;;;31.55;21.55;;;;;;;26.34;58.86;99500.47;4939453;29;20035;-74
2023/06/22 07:36:38;;;;;;;30.48;20.85;;;;;;;26.32;58.98;99500.59;4936902;29;20028;-75
2023/06/22 07:39:03;;;;;;;27.45;19.50;;;;;;;26.33;59.21;99501.47;4935487;29;20110;-74
2023/06/22 07:41:29;;;;;;;26.48;18.38;;;;;;;26.35;59.11;99502.16;4935974;29;20062;-75
2023/06/22 07:43:54;;;;;;;25.55;17.83;;;;;;;26.30;59.32;99499.88;4934449;29;20063;-73
2023/06/22 07:46:20;;;;;;;25.83;16.85;;;;;;;26.31;58.91;99506.06;4935851;29;20066;-75
2023/06/22 07:48:45;;;;;;;21.33;15.27;;;;;;;26.30;59.27;99509.72;4935907;29;20040;-74
2023/06/22 07:51:14;;;;;;;22.83;16.08;;;;;;;26.31;59.16;99512.28;4935462;29;20028;-73
2023/06/22 07:53:41;;;;;;;21.77;15.00;;;;;;;26.30;59.17;99513.25;4935091;29;20123;-73
2023/06/22 07:56:09;;;;;;;19.17;12.63;;;;;;;26.33;59.17;99514.84;4935934;29;20059;-73
2023/06/22 07:58:34;;;;;;;19.55;14.00;;;;;;;26.34;58.92;99516.53;4935693;29;20020;-74
2023/06/22 08:01:00;;;;;;;20.33;14.13;;;;;;;26.36;58.91;99511.88;4935569;29;20034;-75
2023/06/22 08:03:25;;;;;;;17.92;13.57;;;;;;;26.35;59.07;99512.88;4935647;29;20027;-75
2023/06/22 08:05:50;;;;;;;18.55;12.32;;;;;;;26.36;58.96;99518.09;4935731;29;20032;-74
2023/06/22 08:08:16;;;;;;;17.02;12.82;;;;;;;26.35;58.99;99518.22;4934913;29;20043;-74
2023/06/22 08:10:42;;;;;;;16.58;11.68;;;;;;;26.35;58.80;99524.41;4935550;29;20027;-74
2023/06/22 08:13:08;;;;;;;14.90;11.57;;;;;;;26.37;59.22;99516.25;4935562;29;20034;-74
2023/06/22 08:15:33;;;;;;;15.63;10.93;;;;;;;26.36;59.08;99522.59;4935693;29;20032;-74
2023/06/22 08:18:00;;;;;;;16.42;10.65;;;;;;;26.38;58.81;99532.19;4935633;29;20030;-73
2023/06/22 08:20:26;;;;;;;15.27;10.70;;;;;;;26.38;58.91;99534.00;4935429;29;20599;-73
2023/06/22 08:22:53;;;;;;;13.60;9.80;;;;;;;26.39;58.72;99541.06;4935030;29;20118;-74
2023/06/22 08:25:18;;;;;;;13.18;9.32;;;;;;;26.40;59.04;99542.75;4935429;29;20500;-74
2023/06/22 08:27:48;;;;;;;14.15;9.90;;;;;;;26.38;59.01;99540.22;4935247;29;20090;-74
2023/06/22 08:30:14;;;;;;;14.43;9.27;;;;;;;26.41;58.71;99549.81;4935285;29;20044;-76
2023/06/22 08:32:40;;;;;;;10.85;8.15;;;;;;;26.40;59.07;99540.09;4935237;29;20028;-74
2023/06/22 08:35:08;;;;;;;11.57;8.38;;;;;;;26.40;58.90;99548.94;4935192;29;20408;-73
2023/06/22 08:37:35;;;;;;;11.85;8.43;;;;;;;26.40;59.06;99556.13;4934824;29;20028;-76
2023/06/22 08:40:04;;;;;;;11.93;8.20;;;;;;;26.40;58.72;99569.53;4935115;29;20031;-74
2023/06/22 08:42:29;;;;;;;11.15;7.63;;;;;;;26.39;58.81;99557.94;4935152;29;20062;-74
2023/06/22 08:44:55;;;;;;;11.10;7.55;;;;;;;26.40;58.95;99566.84;4935137;29;20043;-74
2023/06/22 08:47:21;;;;;;;10.63;7.43;;;;;;;26.41;58.58;99563.19;4935246;29;20063;-76
2023/06/22 08:49:47;;;;;;;10.75;7.53;;;;;;;26.40;59.02;99570.34;4935095;29;20027;-76
2023/06/22 08:52:12;;;;;;;11.32;7.70;;;;;;;26.41;58.61;99568.53;4934318;29;20034;-74
2023/06/22 08:54:38;;;;;;;9.70;7.00;;;;;;;26.40;58.63;99572.19;4934272;29;20039;-75
2023/06/22 08:57:03;;;;;;;10.00;7.00;;;;;;;26.40;58.46;99575.69;4934921;29;20068;-74
2023/06/22 08:59:29;;;;;;;9.02;6.70;;;;;;;26.40;58.83;99574.88;4935110;29;20036;-75
2023/06/22 09:01:54;;;;;;;9.77;6.38;;;;;;;26.39;58.56;99578.53;4935009;29;20035;-75
2023/06/22 09:04:22;;;;;;;8.90;6.13;;;;;;;26.40;58.58;99590.91;4934563;29;20028;-75
2023/06/22 09:06:47;;;;;;;8.02;6.22;;;;;;;26.41;58.95;99595.28;4934600;29;20059;-73
2023/06/22 09:09:14;;;;;;;8.32;5.80;;;;;;;26.39;58.94;99610.63;4933563;29;20493;-73
2023/06/22 09:11:40;;;;;;;7.25;5.68;;;;;;;26.39;58.84;99613.31;4934780;29;20028;-74
2023/06/22 09:14:05;;;;;;;8.57;6.22;;;;;;;26.38;58.75;99615.13;4934764;29;20031;-75
2023/06/22 09:16:31;;;;;;;7.97;5.60;;;;;;;26.39;58.79;99615.97;4934921;29;20052;-75
2023/06/22 09:18:56;;;;;;;7.80;5.10;;;;;;;26.39;58.65;99621.31;4934831;29;20024;-74
2023/06/22 09:21:21;;;;;;;7.78;5.25;;;;;;;26.39;58.43;99618.66;4934575;29;20026;-73
2023/06/22 09:23:50;;;;;;;7.88;5.07;;;;;;;26.38;58.52;99609.75;4934574;29;20384;-74
2023/06/22 09:26:19;;;;;;;6.35;4.75;;;;;;;26.38;58.47;99623.13;4934648;29;20024;-75
2023/06/22 09:28:45;;;;;;;7.63;5.43;;;;;;;26.38;58.28;99615.13;4934496;29;20038;-74
2023/06/22 09:31:10;;;;;;;6.30;4.30;;;;;;;26.39;58.81;99615.97;4919818;29;20118;-74
2023/06/22 09:33:38;;;;;;;5.88;4.45;;;;;;;26.38;58.22;99628.50;4931435;29;20024;-74
2023/06/22 09:36:07;;;;;;;6.05;4.20;;;;;;;26.40;58.36;99633.72;4934348;29;20035;-74
2023/06/22 09:38:34;;;;;;;6.68;4.60;;;;;;;26.38;58.60;99624.94;4934582;29;20024;-74
2023/06/22 09:41:00;;;;;;;6.93;4.43;;;;;;;26.39;58.77;99621.31;4934709;29;20049;-74
2023/06/22 09:43:25;;;;;;;5.93;4.22;;;;;;;26.39;58.27;99626.69;4934686;29;20477;-74
2023/06/22 09:45:51;;;;;;;6.40;4.28;;;;;;;26.39;58.21;99629.34;4934559;29;20444;-74
2023/06/22 09:48:16;;;;;;;5.82;4.35;;;;;;;26.39;58.78;99621.31;4934172;29;20028;-75
2023/06/22 09:50:42;;;;;;;5.93;4.28;;;;;;;26.38;58.29;99620.47;4934276;29;20456;-74
2023/06/22 09:53:07;;;;;;;6.85;4.15;;;;;;;26.39;58.33;99614.13;4934202;29;20020;-74
2023/06/22 09:55:32;;;;;;;5.22;3.95;;;;;;;26.37;58.47;99618.78;4934608;29;20028;-76
2023/06/22 09:57:58;;;;;;;6.65;4.63;;;;;;;26.38;58.25;99624.94;4934412;29;20035;-74
2023/06/22 10:00:23;;;;;;;5.88;4.20;;;;;;;26.38;58.73;99620.47;4934451;29;20024;-73
2023/06/22 10:02:50;;;;;;;6.55;4.10;;;;;;;26.37;58.77;99620.59;4933901;29;20020;-74
2023/06/22 10:05:15;;;;;;;6.22;4.20;;;;;;;26.35;58.47;99619.88;4934212;29;20035;-74
2023/06/22 10:07:43;;;;;;;6.38;4.25;;;;;;;26.35;58.77;99618.03;4934514;29;20087;-75
2023/06/22 10:10:12;;;;;;;6.47;4.40;;;;;;;26.35;58.87;99620.69;4934242;29;20047;-75
2023/06/22 10:12:46;;;;;;;7.05;4.40;;;;;;;26.34;58.48;99628.88;4934271;29;20103;-74
2023/06/22 10:15:11;;;;;;;5.68;4.25;;;;;;;26.35;58.69;99635.91;4934705;29;20115;-74
2023/06/22 10:17:37;;;;;;;5.80;4.03;;;;;;;26.36;58.36;99640.28;4936056;29;20028;-75
2023/06/22 10:20:11;;;;;;;6.35;3.90;;;;;;;26.36;58.66;99642.97;4937744;29;20016;-74
2023/06/22 10:22:41;;;;;;;6.50;3.75;;;;;;;26.33;58.44;99637.88;4937627;29;20127;-74
2023/06/22 10:25:08;;;;;;;5.13;3.72;;;;;;;26.32;58.76;99645.03;4937429;29;20042;-74
2023/06/22 10:27:33;;;;;;;5.45;3.78;;;;;;;26.32;58.83;99663.75;4937331;29;20064;-74
2023/06/22 10:29:58;;;;;;;6.35;3.78;;;;;;;26.31;58.71;99651.38;4937416;29;20039;-74
2023/06/22 10:32:24;;;;;;;5.68;3.80;;;;;;;26.31;58.59;99647.84;4936871;29;20023;-74
2023/06/22 10:34:49;;;;;;;5.53;3.92;;;;;;;26.32;58.61;99645.03;4936107;29;20027;-73
2023/06/22 10:37:15;;;;;;;5.13;3.83;;;;;;;26.33;58.63;99652.09;4935985;29;20030;-76
2023/06/22 10:39:40;;;;;;;5.30;3.80;;;;;;;26.34;58.53;99660.97;4937402;29;20026;-76
2023/06/22 10:42:06;;;;;;;6.97;4.03;;;;;;;26.33;58.39;99659.28;4937256;29;20456;-74
2023/06/22 10:44:31;;;;;;;5.85;3.95;;;;;;;26.34;58.60;99660.97;4937269;29;20114;-76
2023/06/22 10:46:56;;;;;;;5.07;3.53;;;;;;;26.34;58.65;99655.63;4936931;29;20118;-75
2023/06/22 10:49:22;;;;;;;5.38;3.47;;;;;;;26.35;58.90;99660.00;4936922;29;20087;-75
2023/06/22 10:51:47;;;;;;;5.05;3.05;;;;;;;26.36;59.02;99664.38;4936859;29;20131;-75
2023/06/22 10:54:13;;;;;;;5.75;3.75;;;;;;;26.33;58.96;99667.31;4937025;29;20039;-75
2023/06/22 10:56:40;;;;;;;6.28;3.90;;;;;;;26.33;59.01;99667.31;4937180;29;20031;-74
2023/06/22 10:59:05;;;;;;;6.63;4.18;;;;;;;26.34;58.51;99671.66;4936910;29;20031;-77
2023/06/22 11:01:31;;;;;;;6.03;4.15;;;;;;;26.36;58.48;99664.38;4936678;29;20439;-74
2023/06/22 11:03:57;;;;;;;4.60;3.50;;;;;;;26.36;58.90;99675.06;4937025;29;20055;-74
2023/06/22 11:06:22;;;;;;;5.80;4.03;;;;;;;26.35;58.62;99660.00;4935403;29;20444;-74
2023/06/22 11:08:48;;;;;;;5.40;3.65;;;;;;;26.37;58.51;99658.03;4936865;29;20028;-74
2023/06/22 11:11:13;;;;;;;5.63;3.70;;;;;;;26.36;58.40;99659.00;4936687;29;20511;-74
2023/06/22 11:13:38;;;;;;;5.70;3.90;;;;;;;26.36;59.04;99664.38;4936541;29;20052;-75
2023/06/22 11:16:04;;;;;;;4.93;3.40;;;;;;;26.36;58.47;99661.69;4936500;29;20024;-74
2023/06/22 11:18:33;;;;;;;5.97;3.72;;;;;;;26.38;58.82;99667.75;4936591;29;20028;-74
2023/06/22 11:20:59;;;;;;;5.68;4.22;;;;;;;26.38;58.98;99667.75;4936700;29;20119;-75
2023/06/22 11:23:26;;;;;;;5.00;3.55;;;;;;;26.39;58.56;99669.47;4936544;29;20107;-74
2023/06/22 11:25:51;;;;;;;5.90;3.65;;;;;;;26.38;58.53;99655.25;4936355;29;20023;-75
2023/06/22 11:28:16;;;;;;;4.95;3.60;;;;;;;26.39;58.38;99666.81;4935170;29;20115;-74